createdAt,value
2023-03-30T00:00:55.110Z,-2.85
2023-03-30T00:03:22.997Z,-2.86
2023-03-30T00:05:51.973Z,-2.83
2023-03-30T00:08:18.755Z,-2.76
2023-03-30T00:10:45.820Z,-2.78
2023-03-30T00:13:14.668Z,-2.84
2023-03-30T00:15:41.315Z,-2.85
2023-03-30T00:18:09.239Z,-2.82
2023-03-30T00:20:37.555Z,-2.82
2023-03-30T00:23:04.572Z,-2.85
2023-03-30T00:25:31.313Z,-2.84
2023-03-30T00:27:57.856Z,-2.84
2023-03-30T00:30:24.657Z,-2.81
2023-03-30T00:32:51.215Z,-2.84
2023-03-30T00:35:17.822Z,-2.82
2023-03-30T00:37:45.823Z,-2.84
2023-03-30T00:40:18.091Z,-2.90
2023-03-30T00:42:44.970Z,-2.93
2023-03-30T00:45:22.213Z,-2.95
2023-03-30T00:47:51.517Z,-3.00
2023-03-30T00:50:21.983Z,-2.98
2023-03-30T00:52:52.312Z,-2.93
2023-03-30T00:55:20.995Z,-2.88
2023-03-30T00:57:49.401Z,-2.95
2023-03-30T01:00:18.717Z,-2.97
2023-03-30T01:02:49.798Z,-3.04
2023-03-30T01:05:16.457Z,-3.03
2023-03-30T01:07:46.252Z,-3.03
2023-03-30T01:10:13.793Z,-2.95
2023-03-30T01:12:41.196Z,-2.94
2023-03-30T01:15:08.714Z,-2.93
2023-03-30T01:17:42.316Z,-2.93
2023-03-30T01:20:19.815Z,-2.93
2023-03-30T01:22:47.082Z,-2.95
2023-03-30T01:25:15.213Z,-3.01
2023-03-30T01:27:50.879Z,-3.04
2023-03-30T01:30:32.557Z,-3.03
2023-03-30T01:33:17.579Z,-2.98
2023-03-30T01:35:44.510Z,-2.92
2023-03-30T01:38:17.121Z,-2.87
2023-03-30T01:40:49.869Z,-2.81
2023-03-30T01:43:16.398Z,-2.71
2023-03-30T01:45:51.241Z,-2.65
2023-03-30T01:48:21.126Z,-2.61
2023-03-30T01:50:52.823Z,-2.55
2023-03-30T01:53:22.455Z,-2.51
2023-03-30T01:55:55.713Z,-2.50
2023-03-30T01:58:33.439Z,-2.44
2023-03-30T02:01:01.826Z,-2.39
2023-03-30T02:03:31.813Z,-2.34
2023-03-30T02:06:14.583Z,-2.29
2023-03-30T02:08:41.443Z,-2.22
2023-03-30T02:11:07.974Z,-2.16
2023-03-30T02:13:35.842Z,-2.12
2023-03-30T02:16:04.595Z,-2.07
2023-03-30T02:18:31.356Z,-2.07
2023-03-30T02:20:58.996Z,-2.06
2023-03-30T02:23:28.974Z,-2.02
2023-03-30T02:25:56.819Z,-1.99
2023-03-30T02:28:23.667Z,-1.95
2023-03-30T02:30:50.267Z,-1.91
2023-03-30T02:33:36.962Z,-1.88
2023-03-30T02:36:21.843Z,-1.91
2023-03-30T02:39:07.143Z,-1.89
2023-03-30T02:41:45.873Z,-1.80
2023-03-30T02:44:34.275Z,-1.76
2023-03-30T02:47:17.671Z,-1.73
2023-03-30T02:49:50.742Z,-1.69
2023-03-30T02:52:34.109Z,-1.65
2023-03-30T02:55:19.194Z,-1.62
2023-03-30T02:57:45.764Z,-1.60
2023-03-30T03:00:18.037Z,-1.59
2023-03-30T03:02:57.588Z,-1.55
2023-03-30T03:05:26.374Z,-1.52
2023-03-30T03:07:53.667Z,-1.58
2023-03-30T03:10:20.126Z,-1.59
2023-03-30T03:12:46.902Z,-1.52
2023-03-30T03:15:14.136Z,-1.47
2023-03-30T03:17:40.633Z,-1.48
2023-03-30T03:20:10.564Z,-1.55
2023-03-30T03:22:37.390Z,-1.51
2023-03-30T03:25:05.022Z,-1.46
2023-03-30T03:27:31.597Z,-1.39
2023-03-30T03:29:58.737Z,-1.34
2023-03-30T03:32:25.285Z,-1.30
2023-03-30T03:34:51.918Z,-1.23
2023-03-30T03:37:18.426Z,-1.16
2023-03-30T03:39:44.850Z,-1.17
2023-03-30T03:42:11.491Z,-1.22
2023-03-30T03:44:38.704Z,-1.19
2023-03-30T03:47:05.138Z,-1.15
2023-03-30T03:49:31.739Z,-1.12
2023-03-30T03:51:58.303Z,-1.09
2023-03-30T03:54:24.775Z,-1.11
2023-03-30T03:56:52.118Z,-1.14
2023-03-30T03:59:18.606Z,-1.08
2023-03-30T04:01:45.099Z,-1.02
2023-03-30T04:04:11.755Z,-0.99
2023-03-30T04:06:38.209Z,-1.04
2023-03-30T04:09:04.656Z,-1.06
2023-03-30T04:11:31.083Z,-0.98
2023-03-30T04:13:57.528Z,-0.99
2023-03-30T04:16:24.030Z,-0.93
2023-03-30T04:18:50.548Z,-0.87
2023-03-30T04:21:17.721Z,-0.81
2023-03-30T04:23:48.894Z,-0.79
2023-03-30T04:26:15.812Z,-0.79
2023-03-30T04:28:42.368Z,-0.80
2023-03-30T04:31:13.089Z,-0.73
2023-03-30T04:33:52.011Z,-0.69
2023-03-30T04:36:19.485Z,-0.66
2023-03-30T04:38:59.771Z,-0.64
2023-03-30T04:41:36.168Z,-0.64
2023-03-30T04:44:06.994Z,-0.69
2023-03-30T04:46:33.498Z,-0.71
2023-03-30T04:49:00.006Z,-0.66
2023-03-30T04:51:26.605Z,-0.64
2023-03-30T04:53:53.174Z,-0.67
2023-03-30T04:56:19.629Z,-0.61
2023-03-30T04:58:46.162Z,-0.58
2023-03-30T05:01:12.657Z,-0.51
2023-03-30T05:03:39.495Z,-0.46
2023-03-30T05:06:06.319Z,-0.47
2023-03-30T05:08:33.469Z,-0.43
2023-03-30T05:11:05.194Z,-0.45
2023-03-30T05:13:31.895Z,-0.39
2023-03-30T05:15:58.344Z,-0.35
2023-03-30T05:18:24.900Z,-0.30
2023-03-30T05:20:51.504Z,-0.26
2023-03-30T05:23:18.000Z,-0.24
2023-03-30T05:25:49.021Z,-0.25
2023-03-30T05:28:17.203Z,-0.25
2023-03-30T05:30:47.144Z,-0.23
2023-03-30T05:33:13.920Z,-0.19
2023-03-30T05:35:40.623Z,-0.18
2023-03-30T05:38:07.496Z,-0.11
2023-03-30T05:40:34.066Z,-0.08
2023-03-30T05:43:01.025Z,-0.05
2023-03-30T05:45:27.478Z,-0.03
2023-03-30T05:47:54.694Z,-0.03
2023-03-30T05:50:22.057Z,-0.08
2023-03-30T05:52:48.723Z,-0.09
2023-03-30T05:55:15.402Z,-0.09
2023-03-30T05:57:41.883Z,-0.07
2023-03-30T06:00:10.279Z,-0.06
2023-03-30T06:02:36.782Z,-0.02
2023-03-30T06:05:03.724Z,0.09
2023-03-30T06:07:30.648Z,0.17
2023-03-30T06:09:59.576Z,0.23
2023-03-30T06:12:26.696Z,0.29
2023-03-30T06:14:53.232Z,0.38
2023-03-30T06:17:19.700Z,0.46
2023-03-30T06:19:46.308Z,0.55
2023-03-30T06:22:12.754Z,0.57
2023-03-30T06:24:39.182Z,0.63
2023-03-30T06:27:05.872Z,0.64
2023-03-30T06:29:32.353Z,0.63
2023-03-30T06:31:59.215Z,0.66
2023-03-30T06:34:25.721Z,0.66
2023-03-30T06:36:52.239Z,0.70
2023-03-30T06:39:18.739Z,0.74
2023-03-30T06:41:45.352Z,0.82
2023-03-30T06:44:14.878Z,0.89
2023-03-30T06:46:42.468Z,0.99
2023-03-30T06:49:11.129Z,1.07
2023-03-30T06:51:37.826Z,1.16
2023-03-30T06:54:04.307Z,1.24
2023-03-30T06:56:31.390Z,1.29
2023-03-30T06:58:57.817Z,1.34
2023-03-30T07:01:24.440Z,1.42
2023-03-30T07:03:52.665Z,1.48
2023-03-30T07:06:20.718Z,1.56
2023-03-30T07:08:47.741Z,1.64
2023-03-30T07:11:14.185Z,1.72
2023-03-30T07:13:40.796Z,1.79
2023-03-30T07:16:08.018Z,1.88
2023-03-30T07:18:34.527Z,1.98
2023-03-30T07:21:01.119Z,2.10
2023-03-30T07:23:27.742Z,2.19
2023-03-30T07:25:54.278Z,2.30
2023-03-30T07:28:20.798Z,2.41
2023-03-30T07:30:47.663Z,2.54
2023-03-30T07:33:15.126Z,2.64
2023-03-30T07:35:45.718Z,2.71
2023-03-30T07:38:12.944Z,2.78
2023-03-30T07:40:39.485Z,2.81
2023-03-30T07:43:06.814Z,2.86
2023-03-30T07:45:33.669Z,2.88
2023-03-30T07:48:00.233Z,2.89
2023-03-30T07:50:26.755Z,2.86
2023-03-30T07:52:53.185Z,2.85
2023-03-30T07:55:19.687Z,2.88
2023-03-30T07:57:46.404Z,2.87
2023-03-30T08:00:14.566Z,2.90
2023-03-30T08:02:41.835Z,2.96
2023-03-30T08:05:09.512Z,2.99
2023-03-30T08:07:36.779Z,2.98
2023-03-30T08:10:03.449Z,2.98
2023-03-30T08:12:29.958Z,2.96
2023-03-30T08:14:56.432Z,2.98
2023-03-30T08:17:23.046Z,2.88
2023-03-30T08:19:49.581Z,2.88
2023-03-30T08:22:16.281Z,2.84
2023-03-30T08:24:42.740Z,2.87
2023-03-30T08:27:09.273Z,2.86
2023-03-30T08:29:35.900Z,2.87
2023-03-30T08:32:02.447Z,2.94
2023-03-30T08:34:29.247Z,3.00
2023-03-30T08:36:55.761Z,3.03
2023-03-30T08:39:22.220Z,3.07
2023-03-30T08:41:51.580Z,3.15
2023-03-30T08:44:24.087Z,3.22
2023-03-30T08:46:50.829Z,3.28
2023-03-30T08:49:19.517Z,3.36
2023-03-30T08:51:48.324Z,3.42
2023-03-30T08:54:16.519Z,3.47
2023-03-30T08:56:58.746Z,3.52
2023-03-30T08:59:25.506Z,3.61
2023-03-30T09:01:54.553Z,3.70
2023-03-30T09:04:33.921Z,3.78
2023-03-30T09:07:06.371Z,3.84
2023-03-30T09:09:42.255Z,3.93
2023-03-30T09:12:13.180Z,3.99
2023-03-30T09:14:41.799Z,4.06
2023-03-30T09:17:25.419Z,4.13
2023-03-30T09:19:57.273Z,4.14
2023-03-30T09:22:34.876Z,4.14
2023-03-30T09:25:01.491Z,4.23
2023-03-30T09:27:46.533Z,4.29
2023-03-30T09:30:18.300Z,4.32
2023-03-30T09:32:48.894Z,4.35
2023-03-30T09:35:18.901Z,4.43
2023-03-30T09:37:45.442Z,4.45
2023-03-30T09:40:27.644Z,4.49
2023-03-30T09:43:12.898Z,4.57
2023-03-30T09:45:40.993Z,4.63
2023-03-30T09:48:08.699Z,4.69
2023-03-30T09:50:40.122Z,4.75
2023-03-30T09:53:10.122Z,4.83
2023-03-30T09:55:37.460Z,4.93
2023-03-30T09:58:09.814Z,4.99
2023-03-30T10:00:36.731Z,5.06
2023-03-30T10:03:05.080Z,5.11
2023-03-30T10:05:32.624Z,5.15
2023-03-30T10:08:01.025Z,5.24
2023-03-30T10:10:27.441Z,5.31
2023-03-30T10:13:06.325Z,5.38
2023-03-30T10:15:33.019Z,5.45
2023-03-30T10:18:08.882Z,5.53
2023-03-30T10:20:39.309Z,5.61
2023-03-30T10:23:12.597Z,5.69
2023-03-30T10:25:40.756Z,5.82
2023-03-30T10:28:15.778Z,5.90
2023-03-30T10:30:49.317Z,5.98
2023-03-30T10:33:15.878Z,6.07
2023-03-30T10:35:42.397Z,6.13
2023-03-30T10:38:12.851Z,6.18
2023-03-30T10:40:41.117Z,6.21
2023-03-30T10:43:12.673Z,6.23
2023-03-30T10:46:06.138Z,6.28
2023-03-30T10:48:39.115Z,6.34
2023-03-30T10:51:06.302Z,6.40
2023-03-30T10:53:35.736Z,6.41
2023-03-30T10:56:05.796Z,6.44
2023-03-30T10:58:38.358Z,6.45
2023-03-30T11:01:27.912Z,6.48
2023-03-30T11:03:58.071Z,6.47
2023-03-30T11:06:28.387Z,6.50
2023-03-30T11:08:57.951Z,6.51
2023-03-30T11:11:37.877Z,6.50
2023-03-30T11:14:08.232Z,6.45
2023-03-30T11:16:53.836Z,6.39
2023-03-30T11:19:24.106Z,6.41
2023-03-30T11:21:53.797Z,6.42
2023-03-30T11:24:21.477Z,6.42
2023-03-30T11:26:59.477Z,6.45
2023-03-30T11:29:25.880Z,6.46
2023-03-30T11:32:04.559Z,6.46
2023-03-30T11:34:33.824Z,6.48
2023-03-30T11:37:06.363Z,6.52
2023-03-30T11:39:34.473Z,6.50
2023-03-30T11:42:15.064Z,6.50
2023-03-30T11:44:42.353Z,6.47
2023-03-30T11:47:24.409Z,6.43
2023-03-30T11:49:50.916Z,6.45
2023-03-30T11:52:29.427Z,6.44
2023-03-30T11:55:28.456Z,6.43
2023-03-30T11:58:05.581Z,6.45
2023-03-30T12:00:33.291Z,6.48
2023-03-30T12:03:15.213Z,6.53
2023-03-30T12:05:46.370Z,6.56
2023-03-30T12:08:31.280Z,6.57
2023-03-30T12:11:16.259Z,6.66
2023-03-30T12:13:51.178Z,6.69
2023-03-30T12:16:32.078Z,6.77
2023-03-30T12:19:06.264Z,6.82
2023-03-30T12:21:33.375Z,6.90
2023-03-30T12:24:02.952Z,6.95
2023-03-30T12:26:31.114Z,6.98
2023-03-30T12:29:36.131Z,7.05
2023-03-30T12:31:52.690Z,7.12
2023-03-30T12:34:20.060Z,7.11
2023-03-30T12:36:49.172Z,7.14
2023-03-30T12:39:26.214Z,7.13
2023-03-30T12:42:04.342Z,7.14
2023-03-30T12:44:36.495Z,7.10
2023-03-30T12:47:33.633Z,7.05
2023-03-30T12:50:18.857Z,7.03
2023-03-30T12:53:04.313Z,6.98
2023-03-30T12:55:39.945Z,6.92
2023-03-30T12:58:06.357Z,6.88
2023-03-30T13:00:48.255Z,6.89
2023-03-30T13:03:20.903Z,6.91
2023-03-30T13:05:49.785Z,6.95
2023-03-30T13:08:19.258Z,7.00
2023-03-30T13:10:45.706Z,7.02
2023-03-30T13:13:22.705Z,7.08
2023-03-30T13:15:50.979Z,7.13
2023-03-30T13:18:17.373Z,7.16
2023-03-30T13:20:46.891Z,7.23
2023-03-30T13:23:13.312Z,7.31
2023-03-30T13:25:49.916Z,7.38
2023-03-30T13:28:39.552Z,7.45
2023-03-30T13:31:15.344Z,7.51
2023-03-30T13:33:45.535Z,7.57
2023-03-30T13:36:22.709Z,7.62
2023-03-30T13:39:03.983Z,7.66
2023-03-30T13:41:54.898Z,7.71
2023-03-30T13:44:24.398Z,7.74
2023-03-30T13:46:51.087Z,7.80
2023-03-30T13:49:39.895Z,7.87
2023-03-30T13:52:16.130Z,7.90
2023-03-30T13:54:43.252Z,7.94
2023-03-30T13:57:11.710Z,7.99
2023-03-30T13:59:41.496Z,8.02
2023-03-30T14:02:12.522Z,8.07
2023-03-30T14:04:39.109Z,8.09
2023-03-30T14:07:14.031Z,8.12
2023-03-30T14:09:40.613Z,8.09
2023-03-30T14:12:07.773Z,8.11
2023-03-30T14:14:39.192Z,8.09
2023-03-30T14:17:22.531Z,8.07
2023-03-30T14:19:49.352Z,8.11
2023-03-30T14:22:21.043Z,8.14
2023-03-30T14:24:58.143Z,8.16
2023-03-30T14:27:24.611Z,8.17
2023-03-30T14:29:51.826Z,8.17
2023-03-30T14:32:23.524Z,8.23
2023-03-30T14:34:51.430Z,8.27
2023-03-30T14:37:21.053Z,8.31
2023-03-30T14:39:52.693Z,8.35
2023-03-30T14:42:20.262Z,8.39
2023-03-30T14:44:51.506Z,8.41
2023-03-30T14:47:19.411Z,8.44
2023-03-30T14:49:47.602Z,8.45
2023-03-30T14:52:14.427Z,8.45
2023-03-30T14:54:46.585Z,8.45
2023-03-30T14:57:19.415Z,8.44
2023-03-30T14:59:47.693Z,8.39
2023-03-30T15:02:19.348Z,8.32
2023-03-30T15:04:46.115Z,8.31
2023-03-30T15:07:16.245Z,8.30
2023-03-30T15:09:44.845Z,8.27
2023-03-30T15:12:34.362Z,8.25
2023-03-30T15:15:02.319Z,8.22
2023-03-30T15:17:29.588Z,8.14
2023-03-30T15:19:57.178Z,8.11
2023-03-30T15:22:23.722Z,8.10
2023-03-30T15:24:51.523Z,8.13
2023-03-30T15:27:18.141Z,8.10
2023-03-30T15:29:44.971Z,8.04
2023-03-30T15:32:14.518Z,7.99
2023-03-30T15:34:59.534Z,7.88
2023-03-30T15:37:27.321Z,7.91
2023-03-30T15:39:53.884Z,7.93
2023-03-30T15:42:29.613Z,8.02
2023-03-30T15:45:03.051Z,8.09
2023-03-30T15:47:30.016Z,8.08
2023-03-30T15:49:56.674Z,8.00
2023-03-30T15:52:24.709Z,8.01
2023-03-30T15:54:55.401Z,7.96
2023-03-30T15:57:28.773Z,7.90
2023-03-30T16:00:01.559Z,7.90
2023-03-30T16:03:00.299Z,7.92
2023-03-30T16:05:31.950Z,7.93
2023-03-30T16:07:58.592Z,7.89
2023-03-30T16:10:27.324Z,7.82
2023-03-30T16:12:54.705Z,7.76
2023-03-30T16:15:26.019Z,7.78
2023-03-30T16:17:52.824Z,7.77
2023-03-30T16:20:21.395Z,7.79
2023-03-30T16:22:48.201Z,7.77
2023-03-30T16:25:15.823Z,7.76
2023-03-30T16:27:42.357Z,7.71
2023-03-30T16:30:12.053Z,7.72
2023-03-30T16:32:38.541Z,7.71
2023-03-30T16:35:05.166Z,7.71
2023-03-30T16:37:31.619Z,7.60
2023-03-30T16:39:58.116Z,7.55
2023-03-30T16:42:26.984Z,7.50
2023-03-30T16:44:53.889Z,7.51
2023-03-30T16:47:21.090Z,7.40
2023-03-30T16:49:47.517Z,7.33
2023-03-30T16:52:14.133Z,7.31
2023-03-30T16:54:40.559Z,7.20
2023-03-30T16:57:09.305Z,7.17
2023-03-30T16:59:36.400Z,7.21
2023-03-30T17:02:03.490Z,7.20
2023-03-30T17:04:29.991Z,7.20
2023-03-30T17:06:56.484Z,7.10
2023-03-30T17:09:23.386Z,7.09
2023-03-30T17:11:50.008Z,7.07
2023-03-30T17:14:16.497Z,7.07
2023-03-30T17:16:43.118Z,6.93
2023-03-30T17:19:13.533Z,6.86
2023-03-30T17:21:43.845Z,6.84
2023-03-30T17:24:12.579Z,6.83
2023-03-30T17:26:39.441Z,6.74
2023-03-30T17:29:06.032Z,6.63
2023-03-30T17:31:32.725Z,6.61
2023-03-30T17:33:59.332Z,6.57
2023-03-30T17:36:26.601Z,6.60
2023-03-30T17:38:53.180Z,6.62
2023-03-30T17:41:19.926Z,6.61
2023-03-30T17:43:48.037Z,6.52
2023-03-30T17:46:16.310Z,6.52
2023-03-30T17:48:43.214Z,6.47
2023-03-30T17:51:09.712Z,6.47
2023-03-30T17:53:37.045Z,6.48
2023-03-30T17:56:03.570Z,6.44
2023-03-30T17:58:32.957Z,6.42
2023-03-30T18:01:07.780Z,6.41
2023-03-30T18:03:35.026Z,6.37
2023-03-30T18:06:02.122Z,6.36
2023-03-30T18:08:29.150Z,6.33
2023-03-30T18:10:59.852Z,6.34
2023-03-30T18:13:27.646Z,6.28
2023-03-30T18:15:55.748Z,6.26
2023-03-30T18:18:24.756Z,6.26
2023-03-30T18:20:55.156Z,6.24
2023-03-30T18:23:22.370Z,6.23
2023-03-30T18:25:48.999Z,6.18
2023-03-30T18:28:17.168Z,6.17
2023-03-30T18:30:43.601Z,6.08
2023-03-30T18:33:10.104Z,6.05
2023-03-30T18:35:36.995Z,6.07
2023-03-30T18:38:03.798Z,6.08
2023-03-30T18:40:34.736Z,6.06
2023-03-30T18:43:01.638Z,6.04
2023-03-30T18:45:30.373Z,5.98
2023-03-30T18:47:57.993Z,5.91
2023-03-30T18:50:35.229Z,5.91
2023-03-30T18:53:03.206Z,5.93
2023-03-30T18:55:30.645Z,5.85
2023-03-30T18:57:57.993Z,5.80
2023-03-30T19:00:26.430Z,5.68
2023-03-30T19:02:53.563Z,5.62
2023-03-30T19:05:21.208Z,5.64
2023-03-30T19:07:48.314Z,5.65
2023-03-30T19:10:17.253Z,5.63
2023-03-30T19:12:43.875Z,5.68
2023-03-30T19:15:17.625Z,5.66
2023-03-30T19:17:44.302Z,5.62
2023-03-30T19:20:11.284Z,5.66
2023-03-30T19:22:37.736Z,5.69
2023-03-30T19:25:05.169Z,5.71
2023-03-30T19:27:31.938Z,5.70
2023-03-30T19:29:58.477Z,5.64
2023-03-30T19:32:24.970Z,5.59
2023-03-30T19:34:51.697Z,5.58
2023-03-30T19:37:18.187Z,5.48
2023-03-30T19:39:45.606Z,5.48
2023-03-30T19:42:12.092Z,5.44
2023-03-30T19:44:38.573Z,5.44
2023-03-30T19:47:05.179Z,5.40
2023-03-30T19:49:31.725Z,5.46
2023-03-30T19:51:58.202Z,5.42
2023-03-30T19:54:24.757Z,5.47
2023-03-30T19:56:51.548Z,5.52
2023-03-30T19:59:20.390Z,5.49
2023-03-30T20:01:47.374Z,5.48
2023-03-30T20:04:13.867Z,5.50
2023-03-30T20:06:40.377Z,5.50
2023-03-30T20:09:07.646Z,5.41
2023-03-30T20:11:34.151Z,5.37
2023-03-30T20:14:00.567Z,5.35
2023-03-30T20:16:29.976Z,5.36
2023-03-30T20:18:57.824Z,5.41
2023-03-30T20:21:25.246Z,5.41
2023-03-30T20:23:51.786Z,5.40
2023-03-30T20:26:19.460Z,5.32
2023-03-30T20:28:46.641Z,5.32
2023-03-30T20:31:14.107Z,5.38
2023-03-30T20:33:40.764Z,5.42
2023-03-30T20:36:07.351Z,5.46
2023-03-30T20:38:34.000Z,5.50
2023-03-30T20:41:04.190Z,5.52
2023-03-30T20:46:09.423Z,5.44
2023-03-30T20:48:42.270Z,5.47
2023-03-30T20:51:11.016Z,5.50
2023-03-30T20:53:37.751Z,5.51
2023-03-30T20:56:05.730Z,5.41
2023-03-30T20:58:32.266Z,5.35
2023-03-30T21:00:58.772Z,5.37
2023-03-30T21:03:29.196Z,5.42
2023-03-30T21:06:05.194Z,5.46
2023-03-30T21:08:32.200Z,5.47
2023-03-30T21:10:59.301Z,5.46
2023-03-30T21:13:25.825Z,5.47
2023-03-30T21:15:59.546Z,5.50
2023-03-30T21:18:26.298Z,5.49
2023-03-30T21:20:52.900Z,5.50
2023-03-30T21:23:19.430Z,5.48
2023-03-30T21:25:46.073Z,5.34
2023-03-30T21:28:13.709Z,5.24
2023-03-30T21:30:40.277Z,5.19
2023-03-30T21:33:07.095Z,5.26
2023-03-30T21:35:33.744Z,5.32
2023-03-30T21:38:01.530Z,5.36
2023-03-30T21:40:29.262Z,5.40
2023-03-30T21:42:55.848Z,5.35
2023-03-30T21:45:22.361Z,5.30
2023-03-30T21:47:48.947Z,5.32
2023-03-30T21:50:15.449Z,5.36
2023-03-30T21:52:41.876Z,5.40
2023-03-30T21:55:08.510Z,5.44
2023-03-30T21:57:34.963Z,5.48
2023-03-30T22:00:01.477Z,5.43
2023-03-30T22:02:28.176Z,5.43
2023-03-30T22:04:54.659Z,5.44
2023-03-30T22:07:21.421Z,5.40
2023-03-30T22:09:47.914Z,5.40
2023-03-30T22:12:14.348Z,5.39
2023-03-30T22:14:40.847Z,5.42
2023-03-30T22:17:07.815Z,5.43
2023-03-30T22:19:34.496Z,5.42
2023-03-30T22:22:00.967Z,5.43
2023-03-30T22:24:27.472Z,5.46
2023-03-30T22:26:53.955Z,5.45
2023-03-30T22:29:20.957Z,5.47
2023-03-30T22:31:47.470Z,5.47
2023-03-30T22:34:14.002Z,5.32
2023-03-30T22:36:42.234Z,5.22
2023-03-30T22:39:09.100Z,5.27
2023-03-30T22:41:36.246Z,5.20
2023-03-30T22:44:02.940Z,5.21
2023-03-30T22:46:29.577Z,5.27
2023-03-30T22:48:56.348Z,5.32
2023-03-30T22:51:28.867Z,5.37
2023-03-30T22:53:57.752Z,5.42
2023-03-30T22:56:24.234Z,5.44
2023-03-30T22:58:50.712Z,5.45
2023-03-30T23:01:17.521Z,5.45
2023-03-30T23:03:44.177Z,5.30
2023-03-30T23:06:10.726Z,5.22
2023-03-30T23:08:37.235Z,5.25
2023-03-30T23:11:06.508Z,5.31
2023-03-30T23:13:37.567Z,5.33
2023-03-30T23:16:06.550Z,5.34
2023-03-30T23:18:33.910Z,5.31
2023-03-30T23:21:06.147Z,5.24
2023-03-30T23:23:33.578Z,5.23
2023-03-30T23:26:02.893Z,5.10
2023-03-30T23:28:32.801Z,5.12
2023-03-30T23:31:06.237Z,5.18
2023-03-30T23:33:32.683Z,5.24
2023-03-30T23:35:59.174Z,5.27
2023-03-30T23:38:25.932Z,5.30
2023-03-30T23:40:56.625Z,5.32
2023-03-30T23:43:23.100Z,5.34
2023-03-30T23:45:49.564Z,5.37
2023-03-30T23:48:16.180Z,5.32
2023-03-30T23:50:42.704Z,5.24
2023-03-30T23:53:09.441Z,5.26
2023-03-30T23:55:35.954Z,5.30
2023-03-30T23:58:02.423Z,5.32
